createdAt,value
2022-11-29T00:01:12.952Z,0.30
2022-11-29T00:03:40.819Z,0.25
2022-11-29T00:06:11.251Z,0.24
2022-11-29T00:08:39.530Z,0.24
2022-11-29T00:11:12.412Z,0.20
2022-11-29T00:13:40.444Z,0.16
2022-11-29T00:16:09.927Z,0.13
2022-11-29T00:18:37.853Z,0.09
2022-11-29T00:21:06.547Z,0.06
2022-11-29T00:23:34.926Z,0.05
2022-11-29T00:26:06.675Z,0.04
2022-11-29T00:28:35.463Z,0.00
2022-11-29T00:31:21.665Z,-0.05
2022-11-29T00:33:50.048Z,-0.06
2022-11-29T00:36:18.017Z,-0.08
2022-11-29T00:38:45.985Z,-0.10
2022-11-29T00:41:14.255Z,-0.11
2022-11-29T00:43:42.089Z,-0.14
2022-11-29T00:46:11.745Z,-0.16
2022-11-29T00:48:39.653Z,-0.18
2022-11-29T00:51:07.984Z,-0.18
2022-11-29T00:53:36.463Z,-0.21
2022-11-29T00:56:05.015Z,-0.26
2022-11-29T00:58:33.630Z,-0.28
2022-11-29T01:01:01.531Z,-0.29
2022-11-29T01:03:29.467Z,-0.30
2022-11-29T01:06:01.329Z,-0.32
2022-11-29T01:08:29.301Z,-0.34
2022-11-29T01:11:12.215Z,-0.37
2022-11-29T01:13:40.491Z,-0.41
2022-11-29T01:16:08.874Z,-0.41
2022-11-29T01:18:37.353Z,-0.40
2022-11-29T01:21:10.235Z,-0.39
2022-11-29T01:23:38.483Z,-0.36
2022-11-29T01:26:08.128Z,-0.32
2022-11-29T01:28:37.111Z,-0.31
2022-11-29T01:31:08.784Z,-0.27
2022-11-29T01:33:37.045Z,-0.23
2022-11-29T01:36:05.940Z,-0.21
2022-11-29T01:38:34.109Z,-0.22
2022-11-29T01:41:04.742Z,-0.25
2022-11-29T01:43:33.436Z,-0.27
2022-11-29T01:46:01.317Z,-0.27
2022-11-29T01:48:31.215Z,-0.24
2022-11-29T01:51:00.925Z,-0.24
2022-11-29T01:53:28.997Z,-0.21
2022-11-29T01:56:01.286Z,-0.21
2022-11-29T01:58:29.352Z,-0.22
2022-11-29T02:00:58.315Z,-0.19
2022-11-29T02:03:26.610Z,-0.14
2022-11-29T02:05:55.193Z,-0.12
2022-11-29T02:08:29.921Z,-0.16
2022-11-29T02:11:18.061Z,-0.21
2022-11-29T02:13:59.240Z,-0.24
2022-11-29T02:16:45.741Z,-0.23
2022-11-29T02:19:22.728Z,-0.25
2022-11-29T02:21:58.171Z,-0.28
2022-11-29T02:24:47.283Z,-0.35
2022-11-29T02:27:15.511Z,-0.44
2022-11-29T02:30:02.221Z,-0.52
2022-11-29T02:32:42.375Z,-0.58
2022-11-29T02:35:19.459Z,-0.63
2022-11-29T02:38:22.656Z,-0.67
2022-11-29T02:40:53.390Z,-0.71
2022-11-29T02:43:36.613Z,-0.75
2022-11-29T02:46:04.621Z,-0.78
2022-11-29T02:48:55.898Z,-0.85
2022-11-29T02:51:32.658Z,-0.95
2022-11-29T02:54:06.756Z,-1.02
2022-11-29T02:56:37.472Z,-1.07
2022-11-29T02:59:09.695Z,-1.11
2022-11-29T03:01:55.821Z,-1.14
2022-11-29T03:04:42.622Z,-1.17
2022-11-29T03:07:15.625Z,-1.23
2022-11-29T03:09:50.046Z,-1.25
2022-11-29T03:12:17.818Z,-1.29
2022-11-29T03:14:48.504Z,-1.33
2022-11-29T03:17:19.561Z,-1.37
2022-11-29T03:19:59.699Z,-1.40
2022-11-29T03:22:36.781Z,-1.40
2022-11-29T03:25:05.165Z,-1.41
2022-11-29T03:27:44.277Z,-1.41
2022-11-29T03:30:13.926Z,-1.42
2022-11-29T03:32:50.870Z,-1.44
2022-11-29T03:35:22.234Z,-1.49
2022-11-29T03:38:08.740Z,-1.48
2022-11-29T03:40:56.473Z,-1.49
2022-11-29T03:43:30.665Z,-1.48
2022-11-29T03:46:01.025Z,-1.46
2022-11-29T03:48:37.885Z,-1.45
2022-11-29T03:51:08.728Z,-1.44
2022-11-29T03:53:45.190Z,-1.44
2022-11-29T03:56:36.264Z,-1.44
2022-11-29T03:59:20.048Z,-1.42
2022-11-29T04:02:08.292Z,-1.42
2022-11-29T04:04:48.341Z,-1.43
2022-11-29T04:07:28.742Z,-1.44
2022-11-29T04:10:15.005Z,-1.46
2022-11-29T04:13:04.067Z,-1.48
2022-11-29T04:15:44.383Z,-1.51
2022-11-29T04:18:23.968Z,-1.54
2022-11-29T04:20:51.853Z,-1.57
2022-11-29T04:23:23.083Z,-1.59
2022-11-29T04:26:06.305Z,-1.65
2022-11-29T04:28:49.225Z,-1.67
2022-11-29T04:31:37.218Z,-1.70
2022-11-29T04:34:17.114Z,-1.73
2022-11-29T04:36:47.752Z,-1.77
2022-11-29T04:39:34.253Z,-1.78
2022-11-29T04:42:08.259Z,-1.82
2022-11-29T04:44:36.130Z,-1.84
2022-11-29T04:47:04.101Z,-1.86
2022-11-29T04:49:44.353Z,-1.86
2022-11-29T04:52:15.088Z,-1.85
2022-11-29T04:54:51.871Z,-1.86
2022-11-29T04:57:27.512Z,-1.88
2022-11-29T05:00:07.153Z,-1.90
2022-11-29T05:02:55.786Z,-1.91
2022-11-29T05:05:26.782Z,-1.90
2022-11-29T05:08:13.668Z,-1.87
2022-11-29T05:10:44.603Z,-1.84
2022-11-29T05:13:31.214Z,-1.81
2022-11-29T05:16:05.356Z,-1.77
2022-11-29T05:18:36.367Z,-1.74
2022-11-29T05:21:16.811Z,-1.73
2022-11-29T05:23:53.602Z,-1.68
2022-11-29T05:26:33.968Z,-1.62
2022-11-29T05:29:05.315Z,-1.56
2022-11-29T05:31:33.209Z,-1.49
2022-11-29T05:34:03.926Z,-1.42
2022-11-29T05:36:31.886Z,-1.40
2022-11-29T05:39:08.963Z,-1.38
2022-11-29T05:41:46.663Z,-1.35
2022-11-29T05:44:23.783Z,-1.32
2022-11-29T05:46:57.147Z,-1.32
2022-11-29T05:49:43.748Z,-1.27
2022-11-29T05:52:11.536Z,-1.21
2022-11-29T05:54:48.807Z,-1.20
2022-11-29T05:57:39.914Z,-1.22
2022-11-29T06:00:11.058Z,-1.24
2022-11-29T06:02:41.653Z,-1.24
2022-11-29T06:05:13.681Z,-1.20
2022-11-29T06:07:45.373Z,-1.15
2022-11-29T06:10:21.151Z,-1.14
2022-11-29T06:12:58.145Z,-1.11
2022-11-29T06:15:50.741Z,-1.09
2022-11-29T06:18:37.293Z,-1.05
2022-11-29T06:21:05.164Z,-0.97
2022-11-29T06:23:39.275Z,-0.94
2022-11-29T06:26:10.015Z,-0.92
2022-11-29T06:28:57.562Z,-0.87
2022-11-29T06:31:32.109Z,-0.84
2022-11-29T06:34:03.103Z,-0.86
2022-11-29T06:36:43.051Z,-0.91
2022-11-29T06:39:11.233Z,-0.91
2022-11-29T06:41:39.200Z,-0.88
2022-11-29T06:44:07.371Z,-0.85
2022-11-29T06:46:44.997Z,-0.82
2022-11-29T06:49:33.215Z,-0.78
2022-11-29T06:52:07.425Z,-0.76
2022-11-29T06:54:35.160Z,-0.75
2022-11-29T06:57:08.799Z,-0.72
2022-11-29T06:59:36.666Z,-0.64
2022-11-29T07:02:04.682Z,-0.57
2022-11-29T07:04:45.896Z,-0.53
2022-11-29T07:07:18.696Z,-0.47
2022-11-29T07:09:49.441Z,-0.37
2022-11-29T07:12:18.016Z,-0.26
2022-11-29T07:14:46.561Z,-0.13
2022-11-29T07:17:30.053Z,0.02
2022-11-29T07:19:58.070Z,0.28
2022-11-29T07:22:35.750Z,0.69
2022-11-29T07:25:12.353Z,1.30
2022-11-29T07:27:52.522Z,2.05
2022-11-29T07:30:21.824Z,2.82
2022-11-29T07:33:04.541Z,3.58
2022-11-29T07:35:32.409Z,4.40
2022-11-29T07:38:10.300Z,5.07
2022-11-29T07:40:50.464Z,5.76
2022-11-29T07:43:27.959Z,6.39
2022-11-29T07:45:57.282Z,7.01
2022-11-29T07:48:25.326Z,7.55
2022-11-29T07:50:54.413Z,8.04
2022-11-29T07:53:23.112Z,8.47
2022-11-29T07:55:51.592Z,8.92
2022-11-29T07:58:19.720Z,9.43
2022-11-29T08:00:47.707Z,9.97
2022-11-29T08:03:15.706Z,10.47
2022-11-29T08:05:45.677Z,10.93
2022-11-29T08:08:13.908Z,11.35
2022-11-29T08:10:41.975Z,11.71
2022-11-29T08:13:09.882Z,12.12
2022-11-29T08:15:43.340Z,12.52
2022-11-29T08:18:11.306Z,12.85
2022-11-29T08:20:41.328Z,12.95
2022-11-29T08:23:10.858Z,13.28
2022-11-29T08:25:38.853Z,13.55
2022-11-29T08:28:06.866Z,13.85
2022-11-29T08:30:34.948Z,14.12
2022-11-29T08:33:02.810Z,14.41
2022-11-29T08:35:31.186Z,14.75
2022-11-29T08:37:59.088Z,14.99
2022-11-29T08:40:27.024Z,15.33
2022-11-29T08:42:57.557Z,15.61
2022-11-29T08:45:25.560Z,15.76
2022-11-29T08:47:53.496Z,16.26
2022-11-29T08:50:21.670Z,16.61
2022-11-29T08:53:08.483Z,16.91
2022-11-29T08:55:42.949Z,17.22
2022-11-29T08:58:13.024Z,17.64
2022-11-29T09:00:41.557Z,18.03
2022-11-29T09:03:28.321Z,18.34
2022-11-29T09:05:57.739Z,18.46
2022-11-29T09:08:25.680Z,18.59
2022-11-29T09:10:53.549Z,18.92
2022-11-29T09:13:21.405Z,19.11
2022-11-29T09:15:49.488Z,19.28
2022-11-29T09:18:17.459Z,19.60
2022-11-29T09:20:45.430Z,19.88
2022-11-29T09:23:13.598Z,20.08
2022-11-29T09:25:41.470Z,20.09
2022-11-29T09:28:09.544Z,20.37
2022-11-29T09:30:38.288Z,20.55
2022-11-29T09:33:06.308Z,20.69
2022-11-29T09:35:34.905Z,20.87
2022-11-29T09:38:02.855Z,20.68
2022-11-29T09:40:39.013Z,20.16
2022-11-29T09:43:15.276Z,19.95
2022-11-29T09:45:46.670Z,19.92
2022-11-29T09:48:29.384Z,19.80
2022-11-29T09:51:17.631Z,19.52
2022-11-29T09:54:00.202Z,18.58
2022-11-29T09:56:32.165Z,18.10
2022-11-29T09:59:02.716Z,18.09
2022-11-29T10:01:37.738Z,17.48
2022-11-29T10:04:09.668Z,17.72
2022-11-29T10:06:43.399Z,18.38
2022-11-29T10:09:22.633Z,18.66
2022-11-29T10:12:02.785Z,18.91
2022-11-29T10:14:46.615Z,18.89
2022-11-29T10:17:14.706Z,19.40
2022-11-29T10:19:46.148Z,18.87
2022-11-29T10:22:25.970Z,18.54
2022-11-29T10:24:57.582Z,18.91
2022-11-29T10:27:29.722Z,18.81
2022-11-29T10:30:01.068Z,18.14
2022-11-29T10:32:32.004Z,18.81
2022-11-29T10:35:01.731Z,18.59
2022-11-29T10:37:32.885Z,19.17
2022-11-29T10:40:04.391Z,19.23
2022-11-29T10:42:53.282Z,19.69
2022-11-29T10:45:34.058Z,19.16
2022-11-29T10:48:03.545Z,19.98
2022-11-29T10:50:33.766Z,20.79
2022-11-29T10:53:06.633Z,21.34
2022-11-29T10:55:45.781Z,21.89
2022-11-29T10:58:22.108Z,22.28
2022-11-29T11:00:59.599Z,22.50
2022-11-29T11:03:30.792Z,23.23
2022-11-29T11:06:01.531Z,23.27
2022-11-29T11:08:30.820Z,23.59
2022-11-29T11:11:01.760Z,23.40
2022-11-29T11:13:31.427Z,22.76
2022-11-29T11:15:59.336Z,23.26
2022-11-29T11:18:29.308Z,23.32
2022-11-29T11:20:58.659Z,23.62
2022-11-29T11:23:29.184Z,24.34
2022-11-29T11:26:05.242Z,24.79
2022-11-29T11:28:33.077Z,25.37
2022-11-29T11:31:06.037Z,25.80
2022-11-29T11:33:44.001Z,26.04
2022-11-29T11:36:21.291Z,26.29
2022-11-29T11:38:51.924Z,26.46
2022-11-29T11:41:22.242Z,26.53
2022-11-29T11:43:55.440Z,26.66
2022-11-29T11:46:23.943Z,26.88
2022-11-29T11:48:51.989Z,27.07
2022-11-29T11:51:25.390Z,27.52
2022-11-29T11:53:56.534Z,27.92
2022-11-29T11:56:25.323Z,27.88
2022-11-29T11:58:54.723Z,27.54
2022-11-29T12:01:30.881Z,27.13
2022-11-29T12:04:02.077Z,27.26
2022-11-29T12:06:38.926Z,26.27
2022-11-29T12:09:10.298Z,26.87
2022-11-29T12:11:46.340Z,26.73
2022-11-29T12:14:24.220Z,26.93
2022-11-29T12:16:55.718Z,26.92
2022-11-29T12:19:26.807Z,27.00
2022-11-29T12:21:59.904Z,27.23
2022-11-29T12:24:31.719Z,27.25
2022-11-29T12:27:03.699Z,27.47
2022-11-29T12:29:35.274Z,27.65
2022-11-29T12:32:06.010Z,27.75
2022-11-29T12:34:49.301Z,27.85
2022-11-29T12:37:38.505Z,27.93
2022-11-29T12:40:18.484Z,27.65
2022-11-29T12:42:46.433Z,27.92
2022-11-29T12:45:24.027Z,28.08
2022-11-29T12:48:10.429Z,28.29
2022-11-29T12:50:44.338Z,28.10
2022-11-29T12:53:27.511Z,28.28
2022-11-29T12:56:04.956Z,28.31
2022-11-29T12:58:32.817Z,28.06
2022-11-29T13:01:00.785Z,28.01
2022-11-29T13:03:38.902Z,27.73
2022-11-29T13:06:25.191Z,27.60
2022-11-29T13:09:05.357Z,27.57
2022-11-29T13:11:36.400Z,27.49
2022-11-29T13:14:34.657Z,27.22
2022-11-29T13:16:57.107Z,26.84
2022-11-29T13:19:30.303Z,26.49
2022-11-29T13:21:58.276Z,26.18
2022-11-29T13:24:31.671Z,25.80
2022-11-29T13:27:02.304Z,24.63
2022-11-29T13:29:30.270Z,23.34
2022-11-29T13:31:58.645Z,22.10
2022-11-29T13:34:36.930Z,21.01
2022-11-29T13:37:15.378Z,19.98
2022-11-29T13:39:52.392Z,19.13
2022-11-29T13:42:37.629Z,18.33
2022-11-29T13:45:24.340Z,17.63
2022-11-29T13:47:53.852Z,16.95
2022-11-29T13:50:36.360Z,16.54
2022-11-29T13:53:15.798Z,16.20
2022-11-29T13:55:48.580Z,15.63
2022-11-29T13:58:22.601Z,15.07
2022-11-29T14:00:51.799Z,14.63
2022-11-29T14:03:19.713Z,14.22
2022-11-29T14:05:49.270Z,13.75
2022-11-29T14:08:23.278Z,13.34
2022-11-29T14:10:52.364Z,12.94
2022-11-29T14:13:22.897Z,12.57
2022-11-29T14:15:55.416Z,11.93
2022-11-29T14:18:40.746Z,11.74
2022-11-29T14:21:08.931Z,11.50
2022-11-29T14:23:36.754Z,11.32
2022-11-29T14:26:04.661Z,11.20
2022-11-29T14:28:33.547Z,11.01
2022-11-29T14:31:02.421Z,10.71
2022-11-29T14:33:37.589Z,10.50
2022-11-29T14:36:19.471Z,10.28
2022-11-29T14:38:47.273Z,10.06
2022-11-29T14:41:33.433Z,9.92
2022-11-29T14:44:18.887Z,9.76
2022-11-29T14:46:48.183Z,9.55
2022-11-29T14:49:26.632Z,9.41
2022-11-29T14:52:09.758Z,9.23
2022-11-29T14:54:54.683Z,9.08
2022-11-29T14:57:43.479Z,8.95
2022-11-29T15:00:12.784Z,8.81
2022-11-29T15:02:53.112Z,8.70
2022-11-29T15:05:24.691Z,8.57
2022-11-29T15:08:16.320Z,8.45
2022-11-29T15:10:51.861Z,8.33
2022-11-29T15:13:31.924Z,8.21
2022-11-29T15:16:18.432Z,8.08
2022-11-29T15:19:05.030Z,7.94
2022-11-29T15:22:07.379Z,7.82
2022-11-29T15:24:53.904Z,7.67
2022-11-29T15:27:22.286Z,7.54
2022-11-29T15:29:50.668Z,7.41
2022-11-29T15:32:23.754Z,7.29
2022-11-29T15:34:53.568Z,7.18
2022-11-29T15:37:38.839Z,7.08
2022-11-29T15:40:07.223Z,6.95
2022-11-29T15:42:39.085Z,6.83
2022-11-29T15:45:25.412Z,6.67
2022-11-29T15:47:53.607Z,6.51
2022-11-29T15:50:32.079Z,6.40
2022-11-29T15:53:03.528Z,6.30
2022-11-29T15:55:32.003Z,6.20
2022-11-29T15:58:05.506Z,6.11
2022-11-29T16:00:36.954Z,5.99
2022-11-29T16:03:05.537Z,5.90
2022-11-29T16:05:35.666Z,5.78
2022-11-29T16:08:04.635Z,5.70
2022-11-29T16:10:35.357Z,5.59
2022-11-29T16:13:26.088Z,5.47
2022-11-29T16:16:09.452Z,5.36
2022-11-29T16:18:40.785Z,5.21
2022-11-29T16:21:21.912Z,5.08
2022-11-29T16:23:50.182Z,4.97
2022-11-29T16:26:19.903Z,4.92
2022-11-29T16:28:49.447Z,4.87
2022-11-29T16:31:18.919Z,4.85
2022-11-29T16:33:49.179Z,4.83
2022-11-29T16:36:20.511Z,4.79
2022-11-29T16:38:57.130Z,4.73
2022-11-29T16:41:32.779Z,4.66
2022-11-29T16:44:03.372Z,4.58
2022-11-29T16:46:40.140Z,4.51
2022-11-29T16:49:26.679Z,4.45
2022-11-29T16:51:54.910Z,4.40
2022-11-29T16:54:22.890Z,4.35
2022-11-29T16:56:52.035Z,4.31
2022-11-29T16:59:27.228Z,4.27
2022-11-29T17:01:56.432Z,4.18
2022-11-29T17:04:25.367Z,4.13
2022-11-29T17:06:57.388Z,4.09
2022-11-29T17:09:26.815Z,4.03
2022-11-29T17:11:55.171Z,4.01
2022-11-29T17:14:23.240Z,3.95
2022-11-29T17:16:52.276Z,3.88
2022-11-29T17:19:22.916Z,3.81
2022-11-29T17:21:51.651Z,3.72
2022-11-29T17:24:20.644Z,3.66
2022-11-29T17:26:49.127Z,3.60
2022-11-29T17:29:18.123Z,3.54
2022-11-29T17:31:47.019Z,3.47
2022-11-29T17:34:14.984Z,3.40
2022-11-29T17:36:42.848Z,3.33
2022-11-29T17:39:10.825Z,3.28
2022-11-29T17:41:38.684Z,3.21
2022-11-29T17:44:06.551Z,3.13
2022-11-29T17:46:35.988Z,3.09
2022-11-29T17:49:05.565Z,3.01
2022-11-29T17:54:22.751Z,2.85
2022-11-29T17:56:51.180Z,2.81
2022-11-29T17:59:19.149Z,2.77
2022-11-29T18:01:47.498Z,2.73
2022-11-29T18:04:15.544Z,2.69
2022-11-29T18:06:43.976Z,2.65
2022-11-29T18:09:11.951Z,2.60
2022-11-29T18:11:47.417Z,2.54
2022-11-29T18:14:28.394Z,2.48
2022-11-29T18:16:56.544Z,2.43
2022-11-29T18:19:25.551Z,2.40
2022-11-29T18:21:53.501Z,2.38
2022-11-29T18:24:21.378Z,2.36
2022-11-29T18:26:49.347Z,2.31
2022-11-29T18:29:17.312Z,2.26
2022-11-29T18:31:46.156Z,2.22
2022-11-29T18:34:15.202Z,2.15
2022-11-29T18:36:44.501Z,2.12
2022-11-29T18:39:14.311Z,2.07
2022-11-29T18:41:43.417Z,2.03
2022-11-29T18:44:13.153Z,2.00
2022-11-29T18:46:43.170Z,1.97
2022-11-29T18:49:12.332Z,1.90
2022-11-29T18:51:42.349Z,1.85
2022-11-29T18:54:10.501Z,1.82
2022-11-29T18:56:38.795Z,1.77
2022-11-29T18:59:11.378Z,1.72
2022-11-29T19:01:43.313Z,1.70
2022-11-29T19:04:13.868Z,1.68
2022-11-29T19:06:42.769Z,1.66
2022-11-29T19:09:14.925Z,1.63
2022-11-29T19:11:43.712Z,1.60
2022-11-29T19:14:12.890Z,1.57
2022-11-29T19:16:42.525Z,1.54
2022-11-29T19:19:10.905Z,1.50
2022-11-29T19:21:40.252Z,1.50
2022-11-29T19:24:14.075Z,1.50
2022-11-29T19:26:46.327Z,1.50
2022-11-29T19:29:14.762Z,1.47
2022-11-29T19:31:43.241Z,1.44
2022-11-29T19:34:11.209Z,1.40
2022-11-29T19:36:43.979Z,1.35
2022-11-29T19:39:14.127Z,1.31
2022-11-29T19:41:43.830Z,1.28
2022-11-29T19:44:12.098Z,1.25
2022-11-29T19:46:41.634Z,1.23
2022-11-29T19:49:09.986Z,1.19
2022-11-29T19:51:37.890Z,1.14
2022-11-29T19:54:06.948Z,1.11
2022-11-29T19:56:34.810Z,1.06
2022-11-29T19:59:02.888Z,0.97
2022-11-29T20:01:39.319Z,0.90
2022-11-29T20:04:08.551Z,0.87
2022-11-29T20:06:36.676Z,0.83
2022-11-29T20:09:04.900Z,0.82
2022-11-29T20:11:32.974Z,0.81
2022-11-29T20:14:01.567Z,0.82
2022-11-29T20:16:30.105Z,0.82
2022-11-29T20:18:58.658Z,0.84
2022-11-29T20:21:28.387Z,0.86
2022-11-29T20:23:57.333Z,0.85
2022-11-29T20:26:25.295Z,0.83
2022-11-29T20:28:53.202Z,0.82
2022-11-29T20:31:23.274Z,0.80
2022-11-29T20:33:52.614Z,0.79
2022-11-29T20:36:20.660Z,0.77
2022-11-29T20:38:53.133Z,0.77
2022-11-29T20:41:25.094Z,0.75
2022-11-29T20:43:53.060Z,0.74
2022-11-29T20:46:21.724Z,0.72
2022-11-29T20:48:51.062Z,0.70
2022-11-29T20:51:19.938Z,0.68
2022-11-29T20:53:48.733Z,0.64
2022-11-29T20:56:16.802Z,0.59
2022-11-29T20:58:44.710Z,0.54
2022-11-29T21:01:12.681Z,0.50
2022-11-29T21:03:40.773Z,0.48
2022-11-29T21:06:08.789Z,0.45
2022-11-29T21:08:37.056Z,0.43
2022-11-29T21:11:07.277Z,0.41
2022-11-29T21:13:35.766Z,0.40
2022-11-29T21:16:03.981Z,0.39
2022-11-29T21:18:32.387Z,0.34
2022-11-29T21:21:10.110Z,0.32
2022-11-29T21:23:52.462Z,0.31
2022-11-29T21:26:27.189Z,0.29
2022-11-29T21:29:05.577Z,0.28
2022-11-29T21:31:33.775Z,0.26
2022-11-29T21:34:01.914Z,0.25
2022-11-29T21:36:30.187Z,0.23
2022-11-29T21:39:03.659Z,0.21
2022-11-29T21:41:33.405Z,0.19
2022-11-29T21:44:08.978Z,0.16
2022-11-29T21:46:37.003Z,0.14
2022-11-29T21:49:05.088Z,0.09
2022-11-29T21:51:33.577Z,0.05
2022-11-29T21:54:02.266Z,0.03
2022-11-29T21:56:30.520Z,0.02
2022-11-29T21:58:58.395Z,-0.00
2022-11-29T22:01:27.660Z,-0.05
2022-11-29T22:03:56.180Z,-0.09
2022-11-29T22:06:28.045Z,-0.12
2022-11-29T22:08:56.319Z,-0.16
2022-11-29T22:11:36.788Z,-0.17
2022-11-29T22:14:18.509Z,-0.18
2022-11-29T22:16:57.398Z,-0.21
2022-11-29T22:19:26.804Z,-0.23
2022-11-29T22:21:57.944Z,-0.25
2022-11-29T22:24:27.053Z,-0.27
2022-11-29T22:26:55.852Z,-0.30
2022-11-29T22:29:24.514Z,-0.32
2022-11-29T22:31:53.302Z,-0.36
2022-11-29T22:34:21.994Z,-0.39
2022-11-29T22:36:49.961Z,-0.41
2022-11-29T22:39:17.827Z,-0.41
2022-11-29T22:41:52.313Z,-0.43
2022-11-29T22:44:22.880Z,-0.44
2022-11-29T22:46:51.008Z,-0.44
2022-11-29T22:49:19.027Z,-0.46
2022-11-29T22:51:46.968Z,-0.47
2022-11-29T22:54:18.143Z,-0.51
2022-11-29T22:56:46.002Z,-0.57
2022-11-29T22:59:14.296Z,-0.64
2022-11-29T23:01:42.578Z,-0.70
2022-11-29T23:04:11.758Z,-0.71
2022-11-29T23:06:44.142Z,-0.73
2022-11-29T23:09:16.933Z,-0.73
2022-11-29T23:11:45.906Z,-0.73
2022-11-29T23:14:13.979Z,-0.73
2022-11-29T23:16:43.045Z,-0.72
2022-11-29T23:19:11.481Z,-0.72
2022-11-29T23:21:40.136Z,-0.71
2022-11-29T23:24:08.207Z,-0.72
2022-11-29T23:26:37.611Z,-0.74
2022-11-29T23:29:25.756Z,-0.74
2022-11-29T23:31:53.650Z,-0.76
2022-11-29T23:34:21.693Z,-0.78
2022-11-29T23:36:52.887Z,-0.81
2022-11-29T23:39:21.317Z,-0.81
2022-11-29T23:41:49.184Z,-0.82
2022-11-29T23:44:17.159Z,-0.82
2022-11-29T23:46:45.326Z,-0.80
2022-11-29T23:49:13.306Z,-0.79
2022-11-29T23:51:41.164Z,-0.77
2022-11-29T23:54:09.240Z,-0.75
2022-11-29T23:56:37.209Z,-0.73
2022-11-29T23:59:05.123Z,-0.69
